Time;durP1;ratioP1;P1;durP2;ratioP2;P2;SDS_P1;SDS_P2;PMS_P1;PMS_P2;Temp;Humidity;BMP_temperature;BMP_pressure;BME280_temperature;BME280_humidity;BME280_pressure;Samples;Min_cycle;Max_cycle;Signal;HPM_P1;HPM_P2
2023/06/30 00:01:49;;;;;;;;;;;;;;;;;;5090907;28;19912;-69
2023/06/30 00:04:47;;;;;;;;;;;;;;;;;;5112034;27;19922;-70
2023/06/30 00:08:16;;;;;;;;;;;;;;;;;;5091518;27;19923;-69
2023/06/30 00:10:42;;;;;;;;;;;;;;;;;;5091664;28;19998;-69
2023/06/30 00:13:37;;;;;;;;;;;;;;;;;;5133147;27;19922;-68
2023/06/30 00:16:03;;;;;;;;;;;;;;;;;;5131988;28;19911;-69
2023/06/30 00:18:29;;;;;;;;;;;;;;;;;;5132165;28;19953;-69
2023/06/30 00:24:10;;;;;;;;;;;;;;;;;;5091596;27;20376;-69
2023/06/30 00:26:36;;;;;;;;;;;;;;;;;;5090202;28;19912;-69
2023/06/30 00:29:02;;;;;;;;;;;;;;;;;;5091015;28;19999;-69
2023/06/30 00:31:28;;;;;;;;;;;;;;;;;;5091511;28;19908;-69
2023/06/30 00:36:01;;;;;;;;;;;;;;;;;;5111823;27;19916;-69
2023/06/30 00:41:42;;;;;;;;;;;;;;;;;;5112126;27;19916;-69
2023/06/30 00:44:08;;;;;;;;;;;;;;;;;;5111345;28;20006;-68
2023/06/30 00:46:34;;;;;;;;;;;;;;;;;;5110500;28;19908;-69
2023/06/30 00:57:35;;;;;;;;;;;;;;;;;;5091100;27;19912;-69
2023/06/30 01:01:40;;;;;;;;;;;;;;;;;;5071938;28;20398;-69
2023/06/30 01:04:06;;;;;;;;;;;;;;;;;;5070786;28;19999;-69
2023/06/30 01:06:33;;;;;;;;;;;;;;;;;;5071033;28;19996;-69
2023/06/30 01:08:59;;;;;;;;;;;;;;;;;;5071102;28;19948;-68
2023/06/30 01:15:20;;;;;;;;;;;;;;;;;;5091578;27;19913;-69
2023/06/30 01:17:46;;;;;;;;;;;;;;;;;;5090953;28;20375;-69
2023/06/30 01:22:39;;;;;;;;;;;;;;;;;;5092305;27;20288;-69
2023/06/30 01:25:26;;;;;;;;;;;;;;;;;;5152845;27;20010;-69
2023/06/30 01:29:33;;;;;;;;;;;;;;;;;;5111925;27;19916;-69
2023/06/30 01:31:59;;;;;;;;;;;;;;;;;;5111343;28;20007;-69
2023/06/30 01:34:25;;;;;;;;;;;;;;;;;;5111663;28;19995;-69
2023/06/30 01:36:51;;;;;;;;;;;;;;;;;;5111691;28;19908;-69
2023/06/30 01:39:36;;;;;;;;;;;;;;;;;;5091152;27;19916;-68
2023/06/30 01:42:02;;;;;;;;;;;;;;;;;;5091628;28;20428;-69
2023/06/30 01:45:46;;;;;;;;;;;;;;;;;;5091171;27;19916;-69
2023/06/30 01:48:12;;;;;;;;;;;;;;;;;;5091452;28;20011;-69
2023/06/30 01:50:38;;;;;;;;;;;;;;;;;;5091436;28;19909;-70
2023/06/30 01:53:04;;;;;;;;;;;;;;;;;;5090853;28;19913;-69
2023/06/30 01:55:30;;;;;;;;;;;;;;;;;;5091260;28;19909;-69
2023/06/30 01:57:56;;;;;;;;;;;;;;;;;;5089854;28;19958;-69
2023/06/30 02:00:22;;;;;;;;;;;;;;;;;;5090854;28;19995;-69
2023/06/30 02:02:48;;;;;;;;;;;;;;;;;;5091117;28;19908;-69
2023/06/30 02:05:14;;;;;;;;;;;;;;;;;;5091013;28;20384;-69
2023/06/30 02:09:50;;;;;;;;;;;;;;;;;;5071274;28;19939;-69
2023/06/30 02:12:16;;;;;;;;;;;;;;;;;;5071248;28;20436;-69
2023/06/30 02:18:55;;;;;;;;;;;;;;;;;;5091422;28;20368;-69
2023/06/30 02:22:49;;;;;;;;;;;;;;;;;;5091141;27;19912;-69
2023/06/30 02:26:54;;;;;;;;;;;;;;;;;;5071565;28;19923;-70
2023/06/30 02:29:23;;;;;;;;;;;;;;;;;;5070709;28;19912;-69
2023/06/30 02:31:49;;;;;;;;;;;;;;;;;;5071100;28;19947;-69
2023/06/30 02:34:15;;;;;;;;;;;;;;;;;;5071026;28;20288;-69
2023/06/30 02:37:25;;;;;;;;;;;;;;;;;;5092104;27;19923;-69
2023/06/30 02:39:51;;;;;;;;;;;;;;;;;;5091453;28;19912;-69
2023/06/30 02:42:16;;;;;;;;;;;;;;;;;;5090853;28;20333;-69
2023/06/30 02:44:42;;;;;;;;;;;;;;;;;;5091257;28;19909;-69
2023/06/30 02:47:09;;;;;;;;;;;;;;;;;;5091154;28;20265;-69
2023/06/30 02:49:34;;;;;;;;;;;;;;;;;;5090793;28;19912;-69
2023/06/30 02:52:00;;;;;;;;;;;;;;;;;;5091131;28;19916;-69
2023/06/30 02:54:26;;;;;;;;;;;;;;;;;;5091112;28;19908;-69
2023/06/30 02:58:09;;;;;;;;;;;;;;;;;;5071400;28;19917;-69
2023/06/30 03:00:36;;;;;;;;;;;;;;;;;;5071298;28;20003;-68
2023/06/30 03:03:04;;;;;;;;;;;;;;;;;;5070660;28;19909;-69
2023/06/30 03:05:30;;;;;;;;;;;;;;;;;;5071074;28;19909;-69
2023/06/30 03:07:56;;;;;;;;;;;;;;;;;;5069777;28;20392;-69
2023/06/30 03:10:22;;;;;;;;;;;;;;;;;;5070611;28;20257;-68
2023/06/30 03:12:48;;;;;;;;;;;;;;;;;;5070966;28;19909;-69
2023/06/30 03:15:14;;;;;;;;;;;;;;;;;;5071014;28;19909;-69
2023/06/30 03:17:40;;;;;;;;;;;;;;;;;;5070588;28;20368;-69
2023/06/30 03:21:52;;;;;;;;;;;;;;;;;;5091557;27;19923;-69
2023/06/30 03:24:18;;;;;;;;;;;;;;;;;;5089763;28;19995;-69
2023/06/30 03:26:44;;;;;;;;;;;;;;;;;;5091319;28;20424;-69
2023/06/30 03:30:20;;;;;;;;;;;;;;;;;;5091553;28;20300;-69
2023/06/30 03:32:45;;;;;;;;;;;;;;;;;;5089742;28;19955;-69
2023/06/30 03:35:11;;;;;;;;;;;;;;;;;;5090291;28;19908;-69
2023/06/30 03:37:37;;;;;;;;;;;;;;;;;;5091498;28;19909;-69
2023/06/30 03:40:05;;;;;;;;;;;;;;;;;;5090940;28;20388;-69
2023/06/30 03:42:31;;;;;;;;;;;;;;;;;;5091248;28;19962;-69
2023/06/30 03:44:58;;;;;;;;;;;;;;;;;;5091170;28;19908;-70
2023/06/30 03:47:24;;;;;;;;;;;;;;;;;;5090587;28;19919;-70
2023/06/30 03:49:50;;;;;;;;;;;;;;;;;;5091025;28;19916;-70
2023/06/30 03:52:16;;;;;;;;;;;;;;;;;;5089274;28;19909;-70
2023/06/30 03:54:42;;;;;;;;;;;;;;;;;;5090989;28;20061;-69
2023/06/30 03:57:08;;;;;;;;;;;;;;;;;;5089614;28;19908;-69
2023/06/30 03:59:34;;;;;;;;;;;;;;;;;;5090472;28;19908;-69
2023/06/30 04:02:00;;;;;;;;;;;;;;;;;;5089568;28;19912;-69
2023/06/30 04:04:26;;;;;;;;;;;;;;;;;;5090735;28;19954;-69
2023/06/30 04:06:52;;;;;;;;;;;;;;;;;;5090255;28;19909;-70
2023/06/30 04:09:17;;;;;;;;;;;;;;;;;;5090741;28;19923;-70
2023/06/30 04:11:43;;;;;;;;;;;;;;;;;;5090588;28;19961;-70
2023/06/30 04:14:09;;;;;;;;;;;;;;;;;;5090198;28;19999;-69
2023/06/30 04:19:16;;;;;;;;;;;;;;;;;;5091471;27;19916;-68
2023/06/30 04:22:21;;;;;;;;;;;;;;;;;;5090964;27;19923;-68
2023/06/30 04:24:47;;;;;;;;;;;;;;;;;;5091347;28;20006;-68
2023/06/30 04:27:13;;;;;;;;;;;;;;;;;;5091392;28;19962;-68
2023/06/30 04:29:39;;;;;;;;;;;;;;;;;;5090892;28;19909;-68
2023/06/30 04:32:05;;;;;;;;;;;;;;;;;;5091216;28;19909;-69
2023/06/30 04:36:31;;;;;;;;;;;;;;;;;;5173385;27;19918;-68
2023/06/30 04:38:57;;;;;;;;;;;;;;;;;;5173923;27;19915;-69
2023/06/30 04:41:44;;;;;;;;;;;;;;;;;;5091675;27;19920;-69
2023/06/30 04:44:09;;;;;;;;;;;;;;;;;;5091469;28;20018;-69
2023/06/30 04:46:35;;;;;;;;;;;;;;;;;;5089947;28;19915;-69
2023/06/30 04:51:01;;;;;;;;;;;;;;;;;;5091953;28;19913;-69
2023/06/30 04:53:27;;;;;;;;;;;;;;;;;;5091346;28;20082;-69
2023/06/30 04:55:53;;;;;;;;;;;;;;;;;;5090960;28;20327;-68
2023/06/30 04:58:42;;;;;;;;;;;;;;;;;;5092268;27;19913;-68
2023/06/30 05:01:08;;;;;;;;;;;;;;;;;;5091396;28;20011;-68
2023/06/30 05:03:34;;;;;;;;;;;;;;;;;;5091163;28;20003;-69
2023/06/30 05:06:10;;;;;;;;;;;;;;;;;;5112270;27;19912;-69
2023/06/30 05:08:36;;;;;;;;;;;;;;;;;;5111742;28;20081;-68
2023/06/30 05:11:34;;;;;;;;;;;;;;;;;;5091150;28;19918;-69
2023/06/30 05:15:12;;;;;;;;;;;;;;;;;;5132949;27;20355;-69
2023/06/30 05:17:38;;;;;;;;;;;;;;;;;;5131746;28;19953;-69
2023/06/30 05:21:14;;;;;;;;;;;;;;;;;;5091908;27;20307;-69
2023/06/30 05:23:40;;;;;;;;;;;;;;;;;;5089694;28;20008;-69
2023/06/30 05:26:06;;;;;;;;;;;;;;;;;;5090104;28;20334;-68
2023/06/30 05:40:31;;;;;;;;;;;;;;;;;;5091516;27;19922;-69
2023/06/30 05:42:57;;;;;;;;;;;;;;;;;;5091375;28;20003;-69
2023/06/30 05:46:46;;;;;;;;;;;;;;;;;;5091154;27;19916;-69
2023/06/30 05:51:32;;;;;;;;;;;;;;;;;;5091888;27;19939;-69
2023/06/30 05:53:58;;;;;;;;;;;;;;;;;;5090983;28;20025;-69
2023/06/30 05:57:59;;;;;;;;;;;;;;;;;;5091707;28;19917;-69
2023/06/30 06:04:45;;;;;;;;;;;;;;;;;;5092302;27;19916;-70
2023/06/30 06:07:11;;;;;;;;;;;;;;;;;;5090949;28;20436;-70
2023/06/30 06:09:37;;;;;;;;;;;;;;;;;;5091299;28;19978;-69
2023/06/30 06:12:03;;;;;;;;;;;;;;;;;;5091261;28;19909;-70
2023/06/30 06:15:30;;;;;;;;;;;;;;;;;;5091874;27;19912;-69
2023/06/30 06:17:56;;;;;;;;;;;;;;;;;;5091127;28;20008;-68
2023/06/30 06:21:54;;;;;;;;;;;;;;;;;;5152249;27;19918;-69
2023/06/30 06:24:57;;;;;;;;;;;;;;;;;;5171807;27;19922;-69
2023/06/30 06:28:35;;;;;;;;;;;;;;;;;;5088978;27;20295;-69
2023/06/30 06:31:01;;;;;;;;;;;;;;;;;;5089287;28;19912;-69
2023/06/30 06:33:27;;;;;;;;;;;;;;;;;;5089132;28;20211;-69
2023/06/30 06:35:53;;;;;;;;;;;;;;;;;;5089134;28;20000;-69
2023/06/30 06:39:28;;;;;;;;;;;;;;;;;;5089183;27;19939;-69
2023/06/30 06:47:50;;;;;;;;;;;;;;;;;;5088940;28;19922;-68
2023/06/30 06:50:37;;;;;;;;;;;;;;;;;;5089182;27;20269;-69
2023/06/30 06:53:03;;;;;;;;;;;;;;;;;;5089720;28;20011;-69
2023/06/30 06:55:29;;;;;;;;;;;;;;;;;;5087276;28;19908;-69
2023/06/30 06:57:55;;;;;;;;;;;;;;;;;;5087815;28;19912;-71
2023/06/30 07:00:58;;;;;;;;;;;;;;;;;;5089713;27;19926;-69
2023/06/30 07:03:24;;;;;;;;;;;;;;;;;;5089151;28;19912;-69
2023/06/30 07:07:32;;;;;;;;;;;;;;;;;;5091503;27;20305;-67
2023/06/30 07:11:33;;;;;;;;;;;;;;;;;;5091250;27;19916;-67
2023/06/30 07:13:59;;;;;;;;;;;;;;;;;;5089740;28;19991;-67
2023/06/30 07:17:40;;;;;;;;;;;;;;;;;;5090048;27;19919;-68
2023/06/30 07:20:06;;;;;;;;;;;;;;;;;;5088663;28;20343;-68
2023/06/30 07:22:32;;;;;;;;;;;;;;;;;;5091095;28;19915;-68
2023/06/30 07:30:08;;;;;;;;;;;;;;;;;;5152855;27;20362;-70
2023/06/30 07:35:32;;;;;;;;;;;;;;;;;;5153028;27;20007;-70
2023/06/30 07:37:57;;;;;;;;;;;;;;;;;;5152377;27;19943;-73
2023/06/30 07:42:28;;;;;;;;;;;;;;;;;;5112316;27;19920;-72
2023/06/30 07:44:54;;;;;;;;;;;;;;;;;;5110915;28;19965;-72
2023/06/30 07:48:11;;;;;;;;;;;;;;;;;;5091746;27;19919;-72
2023/06/30 07:50:57;;;;;;;;;;;;;;;;;;5131414;27;19912;-71
2023/06/30 07:53:23;;;;;;;;;;;;;;;;;;5125456;27;20321;-68
2023/06/30 07:57:04;;;;;;;;;;;;;;;;;;5068457;28;19920;-71
2023/06/30 07:59:31;;;;;;;;;;;;;;;;;;5069358;28;19919;-71
2023/06/30 08:01:57;;;;;;;;;;;;;;;;;;5069760;28;20273;-71
2023/06/30 08:04:23;;;;;;;;;;;;;;;;;;5070526;28;19909;-72
2023/06/30 08:06:49;;;;;;;;;;;;;;;;;;5070413;28;19954;-72
2023/06/30 08:11:42;;;;;;;;;;;;;;;;;;5091033;27;19916;-72
2023/06/30 08:14:09;;;;;;;;;;;;;;;;;;5085124;28;19919;-71
2023/06/30 08:16:35;;;;;;;;;;;;;;;;;;5088352;28;19962;-70
2023/06/30 08:19:47;;;;;;;;;;;;;;;;;;5088286;27;20646;-70
2023/06/30 08:22:18;;;;;;;;;;;;;;;;;;5088436;28;20331;-69
2023/06/30 08:24:44;;;;;;;;;;;;;;;;;;5088185;28;19908;-69
2023/06/30 08:27:09;;;;;;;;;;;;;;;;;;5085917;28;19985;-71
2023/06/30 08:31:12;;;;;;;;;;;;;;;;;;5151729;27;19911;-69
2023/06/30 08:33:38;;;;;;;;;;;;;;;;;;5143950;27;19999;-70
2023/06/30 08:36:04;;;;;;;;;;;;;;;;;;5110192;28;20350;-69
2023/06/30 08:38:30;;;;;;;;;;;;;;;;;;5109297;28;19912;-70
2023/06/30 08:46:35;;;;;;;;;;;;;;;;;;5094709;27;2100435;-69
2023/06/30 08:53:03;;;;;;;;;;;;;;;;;;5089995;27;19916;-69
2023/06/30 08:55:30;;;;;;;;;;;;;;;;;;5088596;28;19995;-68
2023/06/30 08:59:27;;;;;;;;;;;;;;;;;;5090558;27;19916;-69
2023/06/30 09:01:54;;;;;;;;;;;;;;;;;;5089733;28;19995;-69
2023/06/30 09:04:20;;;;;;;;;;;;;;;;;;5089997;28;19915;-69
2023/06/30 09:06:49;;;;;;;;;;;;;;;;;;5090317;28;19908;-69
2023/06/30 09:10:24;;;;;;;;;;;;;;;;;;5149609;27;20393;-69
2023/06/30 09:13:01;;;;;;;;;;;;;;;;;;5150491;27;20010;-69
2023/06/30 09:15:27;;;;;;;;;;;;;;;;;;5150372;27;20379;-68
2023/06/30 09:20:48;;;;;;;;;;;;;;;;;;5088945;27;19912;-69
2023/06/30 09:23:15;;;;;;;;;;;;;;;;;;5088214;28;19913;-69
2023/06/30 09:27:52;;;;;;;;;;;;;;;;;;5088910;27;19922;-68
2023/06/30 09:33:12;;;;;;;;;;;;;;;;;;5150725;27;19916;-69
2023/06/30 09:35:41;;;;;;;;;;;;;;;;;;5150418;27;19917;-69
2023/06/30 09:38:07;;;;;;;;;;;;;;;;;;5151927;27;19908;-68
2023/06/30 09:40:33;;;;;;;;;;;;;;;;;;5133889;27;20286;-69
2023/06/30 09:42:58;;;;;;;;;;;;;;;;;;5152368;27;20399;-69
2023/06/30 09:45:24;;;;;;;;;;;;;;;;;;5142432;27;20019;-69
2023/06/30 09:47:50;;;;;;;;;;;;;;;;;;5131812;28;19954;-69
2023/06/30 09:54:33;;;;;;;;;;;;;;;;;;5088934;27;19916;-70
2023/06/30 09:58:13;;;;;;;;;;;;;;;;;;5088939;27;20440;-68
2023/06/30 10:00:39;;;;;;;;;;;;;;;;;;5089372;28;19919;-70
2023/06/30 10:03:05;;;;;;;;;;;;;;;;;;5090852;28;19931;-70
2023/06/30 10:05:31;;;;;;;;;;;;;;;;;;5090584;28;19956;-69
2023/06/30 10:07:57;;;;;;;;;;;;;;;;;;5091108;28;19934;-70
2023/06/30 10:10:23;;;;;;;;;;;;;;;;;;5089545;28;19912;-70
2023/06/30 10:14:11;;;;;;;;;;;;;;;;;;5089969;27;20369;-70
2023/06/30 10:16:38;;;;;;;;;;;;;;;;;;5090169;28;19912;-70
2023/06/30 10:19:04;;;;;;;;;;;;;;;;;;5089574;28;19908;-69
2023/06/30 10:21:30;;;;;;;;;;;;;;;;;;5089485;28;19958;-70
2023/06/30 10:24:51;;;;;;;;;;;;;;;;;;5064922;27;3077747;-69
2023/06/30 10:27:18;;;;;;;;;;;;;;;;;;5172819;27;20404;-69
2023/06/30 10:29:44;;;;;;;;;;;;;;;;;;5173285;27;19907;-69
2023/06/30 10:32:10;;;;;;;;;;;;;;;;;;5171620;27;20282;-69
2023/06/30 10:34:35;;;;;;;;;;;;;;;;;;5170961;27;19907;-69
2023/06/30 10:37:01;;;;;;;;;;;;;;;;;;5171260;27;19911;-70
2023/06/30 10:39:27;;;;;;;;;;;;;;;;;;5171831;27;20007;-69
2023/06/30 10:41:53;;;;;;;;;;;;;;;;;;5152329;27;19907;-70
2023/06/30 10:44:46;;;;;;;;;;;;;;;;;;5091369;28;20384;-69
2023/06/30 10:47:12;;;;;;;;;;;;;;;;;;5090820;28;20280;-70
2023/06/30 10:49:38;;;;;;;;;;;;;;;;;;5089682;28;19995;-70
2023/06/30 10:52:04;;;;;;;;;;;;;;;;;;5089712;28;19969;-70
2023/06/30 10:54:30;;;;;;;;;;;;;;;;;;5089564;28;19936;-70
2023/06/30 10:56:58;;;;;;;;;;;;;;;;;;5089017;28;20368;-70
2023/06/30 10:59:24;;;;;;;;;;;;;;;;;;5090292;28;19908;-70
2023/06/30 11:01:50;;;;;;;;;;;;;;;;;;5088517;28;20258;-70
2023/06/30 11:04:16;;;;;;;;;;;;;;;;;;5090112;28;19917;-70
2023/06/30 11:06:42;;;;;;;;;;;;;;;;;;5089428;28;19954;-70
2023/06/30 11:09:09;;;;;;;;;;;;;;;;;;5089357;28;20011;-70
2023/06/30 11:11:35;;;;;;;;;;;;;;;;;;5090018;28;19908;-69
2023/06/30 11:14:01;;;;;;;;;;;;;;;;;;5090367;28;19914;-70
2023/06/30 11:16:27;;;;;;;;;;;;;;;;;;5090287;28;20396;-70
2023/06/30 11:18:53;;;;;;;;;;;;;;;;;;5090835;28;19909;-70
2023/06/30 11:21:19;;;;;;;;;;;;;;;;;;5091299;28;19908;-70
2023/06/30 11:23:45;;;;;;;;;;;;;;;;;;5089076;28;19920;-70
2023/06/30 11:26:12;;;;;;;;;;;;;;;;;;5090744;28;19909;-70
2023/06/30 11:28:38;;;;;;;;;;;;;;;;;;5090560;28;19916;-70
2023/06/30 11:31:04;;;;;;;;;;;;;;;;;;5090067;28;20312;-70
2023/06/30 11:33:30;;;;;;;;;;;;;;;;;;5090457;28;19931;-70
2023/06/30 11:35:59;;;;;;;;;;;;;;;;;;5090419;28;20395;-70
2023/06/30 11:38:25;;;;;;;;;;;;;;;;;;5090048;28;19912;-69
2023/06/30 11:40:51;;;;;;;;;;;;;;;;;;5090357;28;20388;-69
2023/06/30 11:43:21;;;;;;;;;;;;;;;;;;5098709;28;20432;-69
2023/06/30 11:45:47;;;;;;;;;;;;;;;;;;5091960;28;20391;-70
2023/06/30 11:48:13;;;;;;;;;;;;;;;;;;5110541;28;19912;-70
2023/06/30 11:50:39;;;;;;;;;;;;;;;;;;5110035;28;19998;-70
2023/06/30 11:53:05;;;;;;;;;;;;;;;;;;5110448;28;19916;-70
2023/06/30 11:55:31;;;;;;;;;;;;;;;;;;5100310;28;19908;-70
2023/06/30 11:57:57;;;;;;;;;;;;;;;;;;5096354;28;19908;-70
2023/06/30 12:00:23;;;;;;;;;;;;;;;;;;5078579;28;19908;-70
2023/06/30 12:02:50;;;;;;;;;;;;;;;;;;5070279;28;19936;-70
2023/06/30 12:05:16;;;;;;;;;;;;;;;;;;5089806;28;19920;-69
2023/06/30 12:07:42;;;;;;;;;;;;;;;;;;5083449;28;19914;-68
2023/06/30 12:10:08;;;;;;;;;;;;;;;;;;5064266;28;19916;-68
2023/06/30 12:12:34;;;;;;;;;;;;;;;;;;5076199;28;19912;-68
2023/06/30 12:15:00;;;;;;;;;;;;;;;;;;5075135;28;19962;-68
2023/06/30 12:17:29;;;;;;;;;;;;;;;;;;5076084;28;20002;-68
2023/06/30 12:19:55;;;;;;;;;;;;;;;;;;5057678;28;19916;-68
2023/06/30 12:22:21;;;;;;;;;;;;;;;;;;5076119;28;19955;-68
2023/06/30 12:24:48;;;;;;;;;;;;;;;;;;5076478;28;20360;-69
2023/06/30 12:27:14;;;;;;;;;;;;;;;;;;5056681;28;19908;-69
2023/06/30 12:29:41;;;;;;;;;;;;;;;;;;5075848;28;20340;-69
2023/06/30 12:32:07;;;;;;;;;;;;;;;;;;5075856;28;20353;-69
2023/06/30 12:34:33;;;;;;;;;;;;;;;;;;5057420;28;19908;-68
2023/06/30 12:36:59;;;;;;;;;;;;;;;;;;5075849;28;19909;-68
2023/06/30 12:39:25;;;;;;;;;;;;;;;;;;5057797;28;19912;-68
2023/06/30 12:41:51;;;;;;;;;;;;;;;;;;5075306;28;20003;-68
2023/06/30 12:44:17;;;;;;;;;;;;;;;;;;5075434;28;19921;-68
2023/06/30 12:46:43;;;;;;;;;;;;;;;;;;5075518;28;20007;-69
2023/06/30 12:49:09;;;;;;;;;;;;;;;;;;5075540;28;20357;-68
2023/06/30 12:51:35;;;;;;;;;;;;;;;;;;5075610;28;20465;-69
2023/06/30 12:54:01;;;;;;;;;;;;;;;;;;5075326;28;20272;-69
2023/06/30 12:56:27;;;;;;;;;;;;;;;;;;5075561;28;19908;-68
2023/06/30 12:58:53;;;;;;;;;;;;;;;;;;5075395;28;19916;-69
2023/06/30 13:01:19;;;;;;;;;;;;;;;;;;5074824;28;19909;-68
2023/06/30 13:03:45;;;;;;;;;;;;;;;;;;5057191;28;19973;-68
2023/06/30 13:06:11;;;;;;;;;;;;;;;;;;5074327;28;19999;-69
2023/06/30 13:08:37;;;;;;;;;;;;;;;;;;5074771;28;19909;-69
2023/06/30 13:11:05;;;;;;;;;;;;;;;;;;5075122;28;19908;-68
2023/06/30 13:13:31;;;;;;;;;;;;;;;;;;5075278;28;20373;-69
2023/06/30 13:15:57;;;;;;;;;;;;;;;;;;5074812;28;19948;-69
2023/06/30 13:18:22;;;;;;;;;;;;;;;;;;5074982;28;19962;-69
2023/06/30 13:20:48;;;;;;;;;;;;;;;;;;5074863;28;20253;-68
2023/06/30 13:23:14;;;;;;;;;;;;;;;;;;5074355;28;19923;-69
2023/06/30 13:25:40;;;;;;;;;;;;;;;;;;5074835;28;19912;-69
2023/06/30 13:28:06;;;;;;;;;;;;;;;;;;5074795;28;19916;-68
2023/06/30 13:30:32;;;;;;;;;;;;;;;;;;5074579;28;20357;-68
2023/06/30 13:32:58;;;;;;;;;;;;;;;;;;5074679;28;20284;-69
2023/06/30 13:35:24;;;;;;;;;;;;;;;;;;5074209;28;19976;-68
2023/06/30 13:37:50;;;;;;;;;;;;;;;;;;5074208;28;19908;-67
2023/06/30 13:40:16;;;;;;;;;;;;;;;;;;5074361;28;19927;-67
2023/06/30 13:42:42;;;;;;;;;;;;;;;;;;5074103;28;19921;-68
2023/06/30 13:45:08;;;;;;;;;;;;;;;;;;5073929;28;19944;-68
2023/06/30 13:47:34;;;;;;;;;;;;;;;;;;5074313;28;19905;-67
2023/06/30 13:50:00;;;;;;;;;;;;;;;;;;5073757;28;19944;-69
2023/06/30 13:52:26;;;;;;;;;;;;;;;;;;5056253;28;19904;-68
2023/06/30 13:54:52;;;;;;;;;;;;;;;;;;5074284;28;19908;-69
2023/06/30 13:57:18;;;;;;;;;;;;;;;;;;5073711;28;19990;-68
2023/06/30 13:59:44;;;;;;;;;;;;;;;;;;5056290;28;19915;-68
2023/06/30 14:02:10;;;;;;;;;;;;;;;;;;5074255;28;19905;-69
2023/06/30 14:04:36;;;;;;;;;;;;;;;;;;5073591;28;19916;-69
2023/06/30 14:07:04;;;;;;;;;;;;;;;;;;5074114;28;19908;-69
2023/06/30 14:09:30;;;;;;;;;;;;;;;;;;5074072;28;19951;-69
2023/06/30 14:11:56;;;;;;;;;;;;;;;;;;5073543;28;19912;-69
2023/06/30 14:14:22;;;;;;;;;;;;;;;;;;5074107;28;19916;-68
2023/06/30 14:16:48;;;;;;;;;;;;;;;;;;5074123;28;19909;-69
2023/06/30 14:19:14;;;;;;;;;;;;;;;;;;5073495;28;19908;-68
2023/06/30 14:21:40;;;;;;;;;;;;;;;;;;5074219;28;19935;-69
2023/06/30 14:24:06;;;;;;;;;;;;;;;;;;5073777;28;19920;-69
2023/06/30 14:26:31;;;;;;;;;;;;;;;;;;5073434;28;19947;-69
2023/06/30 14:28:57;;;;;;;;;;;;;;;;;;5073805;28;19909;-69
2023/06/30 14:31:23;;;;;;;;;;;;;;;;;;5073844;28;19944;-69
2023/06/30 14:33:49;;;;;;;;;;;;;;;;;;5055457;28;19915;-69
2023/06/30 14:36:15;;;;;;;;;;;;;;;;;;5055766;28;19912;-69
2023/06/30 14:38:41;;;;;;;;;;;;;;;;;;5073728;28;19909;-69
2023/06/30 14:41:07;;;;;;;;;;;;;;;;;;5073264;28;19915;-69
2023/06/30 14:43:33;;;;;;;;;;;;;;;;;;5073631;28;19921;-69
2023/06/30 14:45:59;;;;;;;;;;;;;;;;;;5073674;28;20326;-69
2023/06/30 14:48:25;;;;;;;;;;;;;;;;;;5073244;28;19912;-68
2023/06/30 14:50:51;;;;;;;;;;;;;;;;;;5073705;28;19908;-70
2023/06/30 14:53:17;;;;;;;;;;;;;;;;;;5073417;28;19916;-68
2023/06/30 14:55:43;;;;;;;;;;;;;;;;;;5073673;28;19909;-68
2023/06/30 14:58:09;;;;;;;;;;;;;;;;;;5073604;28;19915;-69
2023/06/30 15:00:35;;;;;;;;;;;;;;;;;;5073161;28;19916;-69
2023/06/30 15:03:01;;;;;;;;;;;;;;;;;;5073458;28;19923;-69
2023/06/30 15:05:28;;;;;;;;;;;;;;;;;;5073422;28;20375;-69
2023/06/30 15:07:55;;;;;;;;;;;;;;;;;;5073113;28;19909;-70
2023/06/30 15:10:21;;;;;;;;;;;;;;;;;;5073444;28;19954;-69
2023/06/30 15:12:47;;;;;;;;;;;;;;;;;;5073425;28;19909;-69
2023/06/30 15:15:13;;;;;;;;;;;;;;;;;;5073014;28;20345;-69
2023/06/30 15:17:39;;;;;;;;;;;;;;;;;;5073359;28;19932;-69
2023/06/30 15:20:05;;;;;;;;;;;;;;;;;;5073329;28;19913;-69
2023/06/30 15:22:31;;;;;;;;;;;;;;;;;;5073014;28;19916;-69
2023/06/30 15:25:00;;;;;;;;;;;;;;;;;;5073924;28;19913;-69
2023/06/30 15:27:26;;;;;;;;;;;;;;;;;;5073353;28;19912;-69
2023/06/30 15:29:52;;;;;;;;;;;;;;;;;;5055943;28;19912;-70
2023/06/30 15:32:18;;;;;;;;;;;;;;;;;;5077232;28;19908;-69
2023/06/30 15:34:44;;;;;;;;;;;;;;;;;;5076996;28;20408;-69
2023/06/30 15:37:10;;;;;;;;;;;;;;;;;;5076482;28;19959;-69
2023/06/30 15:39:36;;;;;;;;;;;;;;;;;;5077117;28;19920;-69
2023/06/30 15:42:01;;;;;;;;;;;;;;;;;;5076806;28;19962;-69
2023/06/30 15:44:27;;;;;;;;;;;;;;;;;;5076094;28;19927;-69
2023/06/30 15:46:53;;;;;;;;;;;;;;;;;;5076815;28;19951;-70
2023/06/30 15:49:19;;;;;;;;;;;;;;;;;;5076985;28;19909;-69
2023/06/30 15:51:45;;;;;;;;;;;;;;;;;;5076273;28;19912;-69
2023/06/30 15:54:11;;;;;;;;;;;;;;;;;;5076614;28;19954;-69
2023/06/30 15:56:37;;;;;;;;;;;;;;;;;;5076163;28;19909;-69
2023/06/30 15:59:03;;;;;;;;;;;;;;;;;;5076720;28;19908;-69
2023/06/30 16:01:30;;;;;;;;;;;;;;;;;;5076757;28;19908;-69
2023/06/30 16:03:56;;;;;;;;;;;;;;;;;;5076082;28;19920;-69
2023/06/30 16:06:22;;;;;;;;;;;;;;;;;;5076388;28;19908;-70
2023/06/30 16:08:48;;;;;;;;;;;;;;;;;;5076421;28;19984;-70
2023/06/30 16:11:14;;;;;;;;;;;;;;;;;;5076025;28;19955;-69
2023/06/30 16:13:40;;;;;;;;;;;;;;;;;;5076234;28;19916;-70
2023/06/30 16:16:06;;;;;;;;;;;;;;;;;;5076509;28;20000;-69
2023/06/30 16:18:32;;;;;;;;;;;;;;;;;;5075949;28;20365;-69
2023/06/30 16:20:58;;;;;;;;;;;;;;;;;;5058220;28;19908;-69
2023/06/30 16:23:24;;;;;;;;;;;;;;;;;;5075965;28;20351;-69
2023/06/30 16:25:51;;;;;;;;;;;;;;;;;;5075478;28;20292;-69
2023/06/30 16:28:17;;;;;;;;;;;;;;;;;;5075789;28;19944;-69
2023/06/30 16:30:43;;;;;;;;;;;;;;;;;;5075673;28;20254;-69
2023/06/30 16:33:09;;;;;;;;;;;;;;;;;;5057321;28;19943;-69
2023/06/30 16:35:35;;;;;;;;;;;;;;;;;;5075613;28;19928;-69
2023/06/30 16:38:01;;;;;;;;;;;;;;;;;;5075848;28;20333;-69
2023/06/30 16:40:27;;;;;;;;;;;;;;;;;;5075165;28;20003;-68
2023/06/30 16:42:53;;;;;;;;;;;;;;;;;;5075503;28;20008;-68
2023/06/30 16:45:19;;;;;;;;;;;;;;;;;;5075732;28;19916;-69
2023/06/30 16:47:45;;;;;;;;;;;;;;;;;;5075292;28;20054;-69
2023/06/30 16:50:11;;;;;;;;;;;;;;;;;;5075522;28;19909;-69
2023/06/30 16:52:38;;;;;;;;;;;;;;;;;;5075908;28;19922;-69
2023/06/30 16:55:04;;;;;;;;;;;;;;;;;;5074892;28;19946;-69
2023/06/30 16:57:30;;;;;;;;;;;;;;;;;;5075350;28;19909;-69
2023/06/30 16:59:56;;;;;;;;;;;;;;;;;;5075076;28;19908;-69
2023/06/30 17:02:22;;;;;;;;;;;;;;;;;;5075278;28;20257;-69
2023/06/30 17:04:48;;;;;;;;;;;;;;;;;;5057291;28;20327;-69
2023/06/30 17:07:14;;;;;;;;;;;;;;;;;;5074822;28;20646;-70
2023/06/30 17:09:40;;;;;;;;;;;;;;;;;;5075206;28;19909;-69
2023/06/30 17:12:06;;;;;;;;;;;;;;;;;;5075130;28;20399;-69
2023/06/30 17:14:32;;;;;;;;;;;;;;;;;;5074555;28;19964;-69
2023/06/30 17:16:58;;;;;;;;;;;;;;;;;;5074826;28;19909;-69
2023/06/30 17:19:24;;;;;;;;;;;;;;;;;;5074808;28;20011;-69
2023/06/30 17:21:51;;;;;;;;;;;;;;;;;;5074371;28;20273;-69
2023/06/30 17:24:17;;;;;;;;;;;;;;;;;;5074682;28;19925;-69
2023/06/30 17:26:43;;;;;;;;;;;;;;;;;;5074615;28;20038;-69
2023/06/30 17:29:09;;;;;;;;;;;;;;;;;;5074401;28;19909;-69
2023/06/30 17:33:21;;;;;;;;;;;;;;;;;;5091423;27;19918;-68
2023/06/30 17:35:47;;;;;;;;;;;;;;;;;;5090867;28;20023;-68
2023/06/30 17:38:13;;;;;;;;;;;;;;;;;;5091171;28;20373;-68
2023/06/30 17:40:39;;;;;;;;;;;;;;;;;;5091234;28;19915;-69
2023/06/30 17:43:05;;;;;;;;;;;;;;;;;;5089466;28;19908;-68
2023/06/30 17:49:09;;;;;;;;;;;;;;;;;;5112106;27;19916;-68
2023/06/30 17:51:35;;;;;;;;;;;;;;;;;;5111639;28;20344;-68
2023/06/30 17:54:01;;;;;;;;;;;;;;;;;;5111486;28;19968;-68
2023/06/30 17:56:27;;;;;;;;;;;;;;;;;;5111045;28;19908;-68
2023/06/30 17:58:52;;;;;;;;;;;;;;;;;;5111388;28;19998;-68
2023/06/30 18:01:18;;;;;;;;;;;;;;;;;;5111288;28;19946;-68
2023/06/30 18:03:44;;;;;;;;;;;;;;;;;;5110947;28;19908;-69
2023/06/30 18:06:10;;;;;;;;;;;;;;;;;;5111315;28;19908;-69
2023/06/30 18:08:36;;;;;;;;;;;;;;;;;;5111218;28;19923;-69
2023/06/30 18:11:02;;;;;;;;;;;;;;;;;;5110936;28;19916;-69
2023/06/30 18:13:30;;;;;;;;;;;;;;;;;;5111105;28;19919;-69
2023/06/30 18:15:56;;;;;;;;;;;;;;;;;;5111055;28;19908;-69
2023/06/30 18:18:23;;;;;;;;;;;;;;;;;;5109495;28;19908;-69
2023/06/30 18:20:48;;;;;;;;;;;;;;;;;;5111349;28;19912;-69
2023/06/30 18:23:14;;;;;;;;;;;;;;;;;;5111049;28;19908;-69
2023/06/30 18:25:40;;;;;;;;;;;;;;;;;;5110498;28;19955;-69
2023/06/30 18:28:06;;;;;;;;;;;;;;;;;;5110801;28;19923;-69
2023/06/30 18:30:32;;;;;;;;;;;;;;;;;;5110860;28;19961;-69
2023/06/30 18:32:58;;;;;;;;;;;;;;;;;;5110421;28;19927;-70
2023/06/30 18:35:24;;;;;;;;;;;;;;;;;;5110821;28;19993;-70
2023/06/30 18:37:50;;;;;;;;;;;;;;;;;;5110813;28;19912;-70
2023/06/30 18:40:16;;;;;;;;;;;;;;;;;;5110504;28;19914;-70
2023/06/30 18:42:42;;;;;;;;;;;;;;;;;;5110762;28;19908;-70
2023/06/30 18:45:08;;;;;;;;;;;;;;;;;;5110559;28;19908;-71
2023/06/30 18:47:34;;;;;;;;;;;;;;;;;;5109971;28;19966;-71
2023/06/30 18:54:14;;;;;;;;;;;;;;;;;;5091123;27;19939;-68
2023/06/30 19:00:13;;;;;;;;;;;;;;;;;;5091152;27;19922;-68
2023/06/30 19:02:39;;;;;;;;;;;;;;;;;;5091292;28;20280;-68
2023/06/30 19:05:05;;;;;;;;;;;;;;;;;;5091373;28;19991;-68
2023/06/30 19:08:19;;;;;;;;;;;;;;;;;;5091135;27;19922;-68
2023/06/30 19:13:42;;;;;;;;;;;;;;;;;;5091623;28;20280;-68
2023/06/30 19:16:08;;;;;;;;;;;;;;;;;;5091875;28;20010;-69